Time;durP1;ratioP1;P1;durP2;ratioP2;P2;SDS_P1;SDS_P2;PMS_P1;PMS_P2;Temp;Humidity;BMP_temperature;BMP_pressure;BME280_temperature;BME280_humidity;BME280_pressure;Samples;Min_cycle;Max_cycle;Signal;HPM_P1;HPM_P2
2021/10/03 00:01:17;;;;;;;20.92;12.13;;;14.80;99.90;;;;;;5034344;28;20043;-48
2021/10/03 00:03:48;;;;;;;15.93;12.02;;;14.70;99.90;;;;;;5033986;28;20047;-50
2021/10/03 00:06:15;;;;;;;15.68;12.43;;;14.70;99.90;;;;;;5039884;28;20684;-48
2021/10/03 00:08:40;;;;;;;20.08;13.15;;;14.70;99.90;;;;;;5031327;28;20117;-50
2021/10/03 00:11:07;;;;;;;18.98;11.82;;;14.70;99.90;;;;;;5039907;28;20120;-51
2021/10/03 00:13:33;;;;;;;18.08;12.27;;;14.70;99.90;;;;;;5034330;28;20056;-47
2021/10/03 00:15:59;;;;;;;17.30;12.07;;;14.70;99.90;;;;;;5049864;28;20048;-51
2021/10/03 00:18:25;;;;;;;17.58;12.50;;;14.60;99.90;;;;;;5032635;28;20657;-55
2021/10/03 00:20:52;;;;;;;15.57;12.45;;;14.60;99.90;;;;;;5037146;28;20056;-49
2021/10/03 00:23:18;;;;;;;17.15;11.07;;;14.60;99.90;;;;;;5033765;28;20473;-48
2021/10/03 00:25:43;;;;;;;16.00;10.57;;;14.60;99.90;;;;;;5041529;28;20113;-52
2021/10/03 00:28:09;;;;;;;22.58;12.43;;;14.50;99.90;;;;;;5035515;28;20032;-50
2021/10/03 00:30:37;;;;;;;18.23;12.00;;;14.50;99.90;;;;;;5032961;28;20171;-53
2021/10/03 00:33:03;;;;;;;22.77;12.75;;;14.50;99.90;;;;;;5030708;28;20033;-54
2021/10/03 00:35:29;;;;;;;15.68;11.18;;;14.50;99.90;;;;;;5033204;28;20021;-51
2021/10/03 00:37:55;;;;;;;15.80;10.63;;;14.50;99.90;;;;;;5034617;28;20040;-52
2021/10/03 00:40:21;;;;;;;15.95;10.52;;;14.50;99.90;;;;;;5031817;28;20029;-51
2021/10/03 00:42:47;;;;;;;14.00;9.45;;;14.50;99.90;;;;;;5040768;28;20460;-54
2021/10/03 00:45:15;;;;;;;18.10;12.02;;;14.50;99.90;;;;;;5050825;28;20062;-49
2021/10/03 00:47:42;;;;;;;14.20;11.00;;;14.50;99.90;;;;;;5041172;28;20053;-52
2021/10/03 00:50:10;;;;;;;14.95;11.13;;;14.50;99.90;;;;;;5053435;28;20029;-51
2021/10/03 00:52:36;;;;;;;12.93;9.57;;;14.50;99.90;;;;;;5053246;28;20033;-48
2021/10/03 00:55:03;;;;;;;20.15;10.35;;;14.60;99.90;;;;;;5052075;28;20025;-55
2021/10/03 00:57:28;;;;;;;14.68;10.55;;;14.60;99.90;;;;;;5020896;28;20053;-50
2021/10/03 00:59:54;;;;;;;15.82;9.82;;;14.50;99.90;;;;;;5019379;28;20084;-49
2021/10/03 01:02:19;;;;;;;14.43;9.95;;;14.50;99.90;;;;;;5032036;28;20553;-49
2021/10/03 01:04:45;;;;;;;12.77;8.85;;;14.50;99.90;;;;;;5031387;28;20039;-54
2021/10/03 01:07:11;;;;;;;11.90;8.55;;;14.50;99.90;;;;;;5016041;28;20046;-49
2021/10/03 01:09:36;;;;;;;12.35;8.45;;;14.50;99.90;;;;;;5031498;28;20065;-50
2021/10/03 01:12:02;;;;;;;13.63;9.57;;;14.50;99.90;;;;;;5032744;28;20037;-52
2021/10/03 01:14:28;;;;;;;18.00;9.63;;;14.40;99.90;;;;;;5033044;28;20033;-49
2021/10/03 01:16:53;;;;;;;16.77;9.60;;;14.40;99.90;;;;;;5051968;28;20039;-47
2021/10/03 01:19:19;;;;;;;14.35;9.48;;;14.40;99.90;;;;;;5047584;28;20083;-46
2021/10/03 01:21:46;;;;;;;13.68;10.13;;;14.40;99.90;;;;;;5018731;28;20038;-50
2021/10/03 01:24:13;;;;;;;13.35;9.10;;;14.40;99.90;;;;;;5031858;28;20033;-48
2021/10/03 01:26:40;;;;;;;15.73;9.45;;;14.30;99.90;;;;;;5032852;28;20496;-48
2021/10/03 01:29:05;;;;;;;14.38;9.25;;;14.30;99.90;;;;;;5024232;28;20439;-53
2021/10/03 01:31:32;;;;;;;11.05;7.65;;;14.30;99.90;;;;;;5018980;28;20117;-53
2021/10/03 01:33:58;;;;;;;11.60;9.02;;;14.30;99.90;;;;;;5017263;28;20038;-50
2021/10/03 01:36:25;;;;;;;12.85;9.15;;;14.20;99.90;;;;;;5047789;28;20025;-53
2021/10/03 01:38:50;;;;;;;12.15;8.32;;;14.20;99.90;;;;;;5030257;28;20075;-51
2021/10/03 01:41:16;;;;;;;13.10;8.55;;;14.20;99.90;;;;;;5047716;28;20112;-53
2021/10/03 01:43:42;;;;;;;14.18;9.57;;;14.20;99.90;;;;;;5031423;28;20503;-50
2021/10/03 01:46:08;;;;;;;15.10;8.48;;;14.20;99.90;;;;;;5032220;28;20095;-50
2021/10/03 01:48:33;;;;;;;14.25;9.00;;;14.20;99.90;;;;;;5030210;28;20472;-48
2021/10/03 01:51:08;;;;;;;10.38;8.18;;;14.10;99.90;;;;;;5025543;28;20108;-49
2021/10/03 01:53:43;;;;;;;12.73;8.98;;;14.10;99.90;;;;;;5017145;28;20037;-54
2021/10/03 01:56:10;;;;;;;12.48;8.52;;;14.00;99.90;;;;;;5020405;28;20040;-51
2021/10/03 01:58:43;;;;;;;9.50;7.80;;;14.10;99.90;;;;;;5032202;28;20476;-53
2021/10/03 02:01:12;;;;;;;13.80;8.35;;;14.00;99.90;;;;;;5032071;28;20037;-51
2021/10/03 02:03:40;;;;;;;13.40;9.00;;;14.00;99.90;;;;;;5032290;28;20029;-50
2021/10/03 02:06:05;;;;;;;11.15;8.30;;;13.90;99.90;;;;;;5032027;28;20389;-53
2021/10/03 02:08:31;;;;;;;11.35;8.55;;;13.90;99.90;;;;;;5030956;28;20053;-54
2021/10/03 02:10:56;;;;;;;16.90;9.02;;;14.00;99.90;;;;;;5031929;28;20078;-55
2021/10/03 02:13:23;;;;;;;14.95;9.77;;;14.00;99.90;;;;;;5032124;28;20033;-51
2021/10/03 02:15:49;;;;;;;13.30;9.35;;;14.00;99.90;;;;;;5034747;28;20429;-51
2021/10/03 02:18:18;;;;;;;13.82;8.65;;;14.00;99.90;;;;;;5031690;28;20041;-51
2021/10/03 02:20:46;;;;;;;13.73;9.10;;;14.00;99.90;;;;;;5031491;28;20037;-52
2021/10/03 02:23:13;;;;;;;12.68;9.63;;;13.90;99.90;;;;;;5030821;28;20402;-53
2021/10/03 02:25:44;;;;;;;13.82;8.13;;;14.00;99.90;;;;;;5017368;28;20034;-48
2021/10/03 02:28:20;;;;;;;11.43;8.27;;;14.00;99.90;;;;;;5031640;28;20045;-50
2021/10/03 02:30:48;;;;;;;13.10;8.07;;;14.00;99.90;;;;;;5031743;28;20079;-49
2021/10/03 02:33:15;;;;;;;11.50;8.20;;;13.90;99.90;;;;;;5031115;28;20469;-50
2021/10/03 02:35:42;;;;;;;13.00;8.68;;;13.90;99.90;;;;;;5033794;28;20483;-52
2021/10/03 02:38:11;;;;;;;11.30;8.70;;;13.90;99.90;;;;;;5036485;28;20086;-54
2021/10/03 02:40:37;;;;;;;13.02;8.75;;;13.90;99.90;;;;;;5031515;28;20025;-48
2021/10/03 02:43:05;;;;;;;12.27;8.98;;;14.00;99.90;;;;;;5022488;28;20037;-50
2021/10/03 02:45:33;;;;;;;14.50;9.38;;;14.00;99.90;;;;;;5047371;28;20021;-52
2021/10/03 02:47:59;;;;;;;10.80;8.45;;;14.00;99.90;;;;;;5051419;28;20052;-55
2021/10/03 02:50:25;;;;;;;11.52;9.07;;;14.00;99.90;;;;;;5051337;28;20111;-49
2021/10/03 02:52:50;;;;;;;12.70;8.70;;;14.00;99.90;;;;;;5051264;28;20391;-53
2021/10/03 02:55:15;;;;;;;13.25;9.18;;;13.90;99.90;;;;;;5041801;28;20041;-50
2021/10/03 02:57:41;;;;;;;13.30;9.30;;;14.00;99.90;;;;;;5031429;28;20033;-52
2021/10/03 03:00:08;;;;;;;11.43;8.45;;;14.00;99.90;;;;;;5030431;28;20041;-48
2021/10/03 03:02:34;;;;;;;10.77;8.20;;;13.90;99.90;;;;;;5031278;28;20018;-50
2021/10/03 03:05:00;;;;;;;16.00;9.55;;;13.90;99.90;;;;;;5018324;28;20074;-50
2021/10/03 03:07:25;;;;;;;15.18;9.07;;;13.90;99.90;;;;;;5030834;28;20120;-48
2021/10/03 03:09:51;;;;;;;15.93;10.20;;;13.90;99.90;;;;;;5030363;28;20474;-50
2021/10/03 03:12:17;;;;;;;11.70;8.65;;;13.80;99.90;;;;;;5029431;28;20480;-47
2021/10/03 03:14:42;;;;;;;16.73;9.27;;;13.80;99.90;;;;;;5033202;28;20023;-50
2021/10/03 03:17:17;;;;;;;10.32;7.80;;;13.80;99.90;;;;;;5032997;28;20067;-50
2021/10/03 03:19:43;;;;;;;10.55;8.48;;;13.80;99.90;;;;;;5037270;28;20033;-47
2021/10/03 03:22:10;;;;;;;12.38;9.15;;;13.80;99.90;;;;;;5050452;28;20056;-51
2021/10/03 03:24:35;;;;;;;13.90;8.77;;;13.80;99.90;;;;;;5030392;28;20021;-53
2021/10/03 03:27:01;;;;;;;16.45;9.50;;;13.80;99.90;;;;;;5030998;28;20072;-54
2021/10/03 03:29:26;;;;;;;13.20;8.60;;;13.90;99.90;;;;;;5031295;28;20033;-49
2021/10/03 03:31:53;;;;;;;10.95;8.98;;;13.90;99.90;;;;;;5031177;28;20392;-50
2021/10/03 03:34:19;;;;;;;10.50;9.07;;;13.90;99.90;;;;;;5033687;28;20061;-49
2021/10/03 03:36:44;;;;;;;12.68;8.40;;;13.90;99.90;;;;;;5044608;28;20585;-49
2021/10/03 03:39:10;;;;;;;11.68;8.50;;;13.90;99.90;;;;;;5036432;28;20373;-48
2021/10/03 03:41:35;;;;;;;13.40;8.70;;;13.90;99.90;;;;;;5019366;28;20462;-52
2021/10/03 03:44:01;;;;;;;15.27;8.93;;;14.00;99.90;;;;;;5018814;28;20017;-55
2021/10/03 03:46:26;;;;;;;12.50;10.15;;;14.00;99.90;;;;;;5035638;28;20100;-51
2021/10/03 03:48:52;;;;;;;12.15;9.45;;;14.00;99.90;;;;;;5035602;28;20033;-52
2021/10/03 03:51:17;;;;;;;15.18;9.98;;;14.10;99.90;;;;;;5035510;28;20137;-52
2021/10/03 03:53:43;;;;;;;11.07;8.15;;;14.10;99.90;;;;;;5034717;28;20029;-50
2021/10/03 03:56:10;;;;;;;13.70;9.98;;;14.10;99.90;;;;;;5032521;28;20025;-54
2021/10/03 03:58:35;;;;;;;13.80;9.20;;;14.20;99.90;;;;;;5015702;28;20022;-54
2021/10/03 04:01:01;;;;;;;16.40;10.73;;;14.20;99.90;;;;;;5015539;28;20030;-55
2021/10/03 04:03:26;;;;;;;12.05;9.43;;;14.20;99.90;;;;;;5015607;28;20053;-49
2021/10/03 04:05:52;;;;;;;14.32;9.90;;;14.30;99.90;;;;;;5033108;28;20040;-52
2021/10/03 04:08:19;;;;;;;15.50;9.10;;;14.30;99.90;;;;;;5034035;28;20092;-52
2021/10/03 04:10:46;;;;;;;15.02;9.63;;;14.30;99.90;;;;;;5035283;28;20021;-50
2021/10/03 04:13:11;;;;;;;15.68;10.13;;;14.30;99.90;;;;;;5035001;28;20056;-50
2021/10/03 04:15:37;;;;;;;13.82;10.02;;;14.30;99.90;;;;;;5035186;28;20034;-49
2021/10/03 04:18:02;;;;;;;15.55;10.98;;;14.30;99.90;;;;;;5034381;28;20026;-52
2021/10/03 04:20:28;;;;;;;13.35;8.90;;;14.40;99.90;;;;;;5022189;28;20103;-50
2021/10/03 04:22:53;;;;;;;15.57;8.23;;;14.40;99.90;;;;;;5034924;28;20022;-53
2021/10/03 04:25:19;;;;;;;13.20;9.18;;;14.40;99.90;;;;;;5033295;28;20033;-49
2021/10/03 04:27:44;;;;;;;16.83;10.57;;;14.40;99.90;;;;;;5034254;28;20519;-52
2021/10/03 04:30:10;;;;;;;14.02;9.90;;;14.40;99.90;;;;;;5033873;28;20075;-51
2021/10/03 04:32:36;;;;;;;12.73;9.80;;;14.50;99.90;;;;;;5034613;28;20136;-49
2021/10/03 04:35:02;;;;;;;12.77;9.15;;;14.40;99.90;;;;;;5034769;28;20101;-56
2021/10/03 04:37:27;;;;;;;12.52;8.65;;;14.40;99.90;;;;;;5034502;28;20025;-50
2021/10/03 04:39:53;;;;;;;10.57;8.65;;;14.40;99.90;;;;;;5033935;28;20033;-51
2021/10/03 04:42:20;;;;;;;14.15;9.00;;;14.40;99.90;;;;;;5034423;28;20044;-55
2021/10/03 04:44:47;;;;;;;12.80;9.75;;;14.40;99.90;;;;;;5033293;28;20056;-50
2021/10/03 04:47:13;;;;;;;18.48;9.85;;;14.40;99.90;;;;;;5034320;28;20029;-51
2021/10/03 04:49:39;;;;;;;15.23;10.40;;;14.40;99.90;;;;;;5034285;28;20515;-51
2021/10/03 04:52:05;;;;;;;14.23;10.75;;;14.40;99.90;;;;;;5034528;28;20033;-50
2021/10/03 04:54:30;;;;;;;13.32;9.63;;;14.30;99.90;;;;;;5033517;28;20025;-51
2021/10/03 04:56:56;;;;;;;14.07;9.38;;;14.30;99.90;;;;;;5034291;28;20025;-51
2021/10/03 04:59:21;;;;;;;18.65;11.25;;;14.30;99.90;;;;;;5034163;28;20042;-48
2021/10/03 05:01:47;;;;;;;17.00;10.63;;;14.20;99.90;;;;;;5034425;28;20064;-47
2021/10/03 05:04:12;;;;;;;13.38;10.05;;;14.30;99.90;;;;;;5033940;28;20029;-48
2021/10/03 05:06:39;;;;;;;14.50;9.52;;;14.20;99.90;;;;;;5034071;28;20063;-49
2021/10/03 05:09:04;;;;;;;16.80;11.57;;;14.20;99.90;;;;;;5033138;28;20038;-50
2021/10/03 05:11:30;;;;;;;15.25;10.35;;;14.20;99.90;;;;;;5034240;28;20030;-54
2021/10/03 05:13:56;;;;;;;14.13;9.27;;;14.20;99.90;;;;;;5029945;28;20033;-50
2021/10/03 05:16:21;;;;;;;12.65;9.68;;;14.20;99.90;;;;;;5029602;28;20144;-49
2021/10/03 05:18:47;;;;;;;15.48;9.55;;;14.20;99.90;;;;;;5033535;28;20032;-49
2021/10/03 05:21:12;;;;;;;15.15;9.63;;;14.20;99.90;;;;;;5033847;28;20029;-51
2021/10/03 05:23:38;;;;;;;15.73;10.45;;;14.20;99.90;;;;;;5020347;28;20022;-50
2021/10/03 05:26:04;;;;;;;12.57;9.65;;;14.20;99.90;;;;;;5014066;28;20026;-50
2021/10/03 05:28:29;;;;;;;13.98;10.15;;;14.30;99.90;;;;;;5013743;28;20026;-51
2021/10/03 05:30:55;;;;;;;12.57;9.77;;;14.30;99.90;;;;;;5016472;28;20466;-50
2021/10/03 05:33:20;;;;;;;15.57;9.30;;;14.30;99.90;;;;;;5022190;28;20480;-51
2021/10/03 05:35:46;;;;;;;13.88;10.30;;;14.30;99.90;;;;;;5021406;28;20029;-53
2021/10/03 05:38:12;;;;;;;15.02;10.30;;;14.40;99.90;;;;;;5013934;28;20033;-53
2021/10/03 05:40:37;;;;;;;15.82;10.30;;;14.40;99.90;;;;;;5033209;28;20021;-53
2021/10/03 05:43:03;;;;;;;15.32;10.60;;;14.40;99.90;;;;;;5033359;28;20022;-49
2021/10/03 05:45:28;;;;;;;11.77;9.70;;;14.50;99.90;;;;;;5033357;28;20029;-50
2021/10/03 05:47:55;;;;;;;12.77;9.30;;;14.50;99.90;;;;;;5033332;28;20440;-53
2021/10/03 05:50:21;;;;;;;14.23;10.38;;;14.50;99.90;;;;;;5033352;28;20065;-51
2021/10/03 05:52:46;;;;;;;13.00;10.13;;;14.50;99.90;;;;;;5033296;28;20393;-53
2021/10/03 05:55:12;;;;;;;16.02;10.27;;;14.60;99.90;;;;;;5032338;28;20061;-53
2021/10/03 05:57:37;;;;;;;14.27;10.00;;;14.60;99.90;;;;;;5032947;28;20025;-56
2021/10/03 06:00:05;;;;;;;14.93;10.70;;;14.60;99.90;;;;;;5032295;28;20024;-49
2021/10/03 06:02:30;;;;;;;11.80;9.85;;;14.60;99.90;;;;;;5032219;28;20105;-51
2021/10/03 06:04:56;;;;;;;13.95;10.73;;;14.70;99.90;;;;;;4999755;28;20123;-50
2021/10/03 06:07:21;;;;;;;14.43;11.05;;;14.70;99.90;;;;;;4993665;28;20148;-47
2021/10/03 06:09:47;;;;;;;14.15;11.00;;;14.70;99.90;;;;;;5032118;28;20033;-47
2021/10/03 06:12:12;;;;;;;14.98;10.70;;;14.70;99.90;;;;;;5033035;28;20104;-51
2021/10/03 06:14:38;;;;;;;17.48;10.32;;;14.70;99.90;;;;;;5023022;28;20127;-52
2021/10/03 06:17:03;;;;;;;12.98;10.65;;;14.80;99.90;;;;;;5019771;28;20403;-52
2021/10/03 06:19:29;;;;;;;12.43;10.07;;;14.80;99.90;;;;;;5032301;28;20036;-53
2021/10/03 06:21:54;;;;;;;14.40;10.45;;;14.90;99.90;;;;;;5033005;28;20036;-49
2021/10/03 06:24:22;;;;;;;11.80;9.15;;;15.00;99.90;;;;;;5031236;28;20029;-54
2021/10/03 06:26:48;;;;;;;13.60;10.02;;;15.00;99.90;;;;;;5032363;28;20485;-48
2021/10/03 06:29:14;;;;;;;12.45;9.73;;;15.00;99.90;;;;;;5032402;28;20104;-51
2021/10/03 06:31:40;;;;;;;12.57;10.95;;;15.10;99.70;;;;;;5032643;28;20453;-53
2021/10/03 06:34:05;;;;;;;14.98;10.93;;;15.10;99.40;;;;;;5032126;28;20032;-52
2021/10/03 06:36:31;;;;;;;16.15;10.35;;;15.10;99.60;;;;;;5031835;28;20108;-51
2021/10/03 06:38:56;;;;;;;13.27;10.65;;;15.20;99.10;;;;;;5031183;28;20033;-52
2021/10/03 06:41:22;;;;;;;14.70;10.90;;;15.30;98.30;;;;;;5032009;28;20033;-50
2021/10/03 06:43:47;;;;;;;13.15;9.60;;;15.30;99.00;;;;;;5032411;28;20111;-52
2021/10/03 06:46:13;;;;;;;14.30;10.57;;;15.40;98.30;;;;;;5032301;28;20079;-52
2021/10/03 06:48:38;;;;;;;16.38;10.40;;;15.50;98.40;;;;;;5032262;28;20026;-51
2021/10/03 06:51:04;;;;;;;13.85;10.00;;;15.50;98.30;;;;;;5022953;28;20033;-50
2021/10/03 06:53:30;;;;;;;13.38;9.77;;;15.60;97.30;;;;;;5028149;28;20037;-54
2021/10/03 06:55:55;;;;;;;14.88;10.13;;;15.70;97.00;;;;;;5032481;28;20048;-52
2021/10/03 06:58:21;;;;;;;14.90;10.63;;;15.80;96.70;;;;;;5023407;28;20040;-51
2021/10/03 07:00:47;;;;;;;13.65;9.90;;;16.00;96.20;;;;;;5012516;28;20526;-52
2021/10/03 07:03:12;;;;;;;10.80;9.10;;;16.20;95.60;;;;;;5012391;28;20045;-51
2021/10/03 07:05:37;;;;;;;13.88;9.60;;;16.40;95.50;;;;;;5016110;28;20488;-55
2021/10/03 07:08:05;;;;;;;13.50;9.82;;;16.50;93.40;;;;;;5021037;28;20041;-53
2021/10/03 07:10:31;;;;;;;14.63;10.23;;;16.60;93.90;;;;;;5016590;28;20457;-51
2021/10/03 07:12:57;;;;;;;12.38;9.73;;;16.60;93.70;;;;;;5025873;28;20034;-51
2021/10/03 07:15:22;;;;;;;11.25;9.45;;;16.60;93.70;;;;;;5021997;28;20562;-54
2021/10/03 07:17:48;;;;;;;13.68;9.90;;;16.60;92.90;;;;;;5035197;28;20083;-53
2021/10/03 07:20:13;;;;;;;12.20;9.95;;;16.60;94.00;;;;;;5034251;28;20451;-47
2021/10/03 07:22:39;;;;;;;13.43;9.68;;;16.50;92.80;;;;;;5034583;28;20201;-51
2021/10/03 07:25:06;;;;;;;16.35;9.68;;;16.50;93.20;;;;;;5033339;28;20037;-52
2021/10/03 07:27:32;;;;;;;9.45;8.38;;;16.50;93.80;;;;;;5034248;28;20022;-50
2021/10/03 07:29:57;;;;;;;10.65;8.98;;;16.60;94.40;;;;;;5022029;28;20045;-49
2021/10/03 07:32:23;;;;;;;10.20;9.07;;;16.60;94.30;;;;;;5033973;28;20029;-56
2021/10/03 07:34:49;;;;;;;15.63;9.30;;;16.70;94.00;;;;;;5033704;28;20030;-51
2021/10/03 07:37:14;;;;;;;12.57;8.82;;;16.70;93.60;;;;;;5039905;28;20044;-52
2021/10/03 07:39:40;;;;;;;13.10;9.85;;;16.90;93.60;;;;;;5052974;28;20033;-53
2021/10/03 07:42:06;;;;;;;13.27;9.50;;;16.90;93.20;;;;;;5040722;28;20029;-54
2021/10/03 07:44:32;;;;;;;13.02;10.35;;;17.00;92.60;;;;;;5032500;28;20025;-50
2021/10/03 07:46:57;;;;;;;10.98;9.43;;;17.00;92.10;;;;;;5038950;28;20021;-51
2021/10/03 07:49:23;;;;;;;10.27;8.27;;;17.10;91.10;;;;;;5053750;28;20040;-53
2021/10/03 07:51:49;;;;;;;13.70;9.20;;;17.20;91.50;;;;;;5039580;28;20204;-52
2021/10/03 07:54:14;;;;;;;11.45;8.82;;;17.30;90.70;;;;;;5032979;28;20049;-55
2021/10/03 07:56:40;;;;;;;13.13;9.35;;;17.50;91.60;;;;;;5033642;28;20052;-52
2021/10/03 07:59:05;;;;;;;13.15;9.25;;;17.60;90.60;;;;;;5030685;28;20025;-51
2021/10/03 08:01:31;;;;;;;11.00;7.32;;;17.60;90.70;;;;;;5027457;28;20034;-54
2021/10/03 08:03:57;;;;;;;13.23;8.70;;;17.80;90.90;;;;;;5034105;28;20022;-52
2021/10/03 08:06:23;;;;;;;12.95;9.57;;;17.90;89.80;;;;;;5033405;28;20052;-53
2021/10/03 08:08:49;;;;;;;16.88;8.65;;;17.90;88.90;;;;;;5028855;28;20485;-53
2021/10/03 08:11:15;;;;;;;10.73;8.63;;;17.80;87.00;;;;;;5034679;28;20436;-49
2021/10/03 08:13:41;;;;;;;10.48;8.02;;;17.90;86.90;;;;;;5035297;28;20029;-53
2021/10/03 08:16:08;;;;;;;11.10;7.70;;;18.00;87.60;;;;;;5035024;28;20036;-56
2021/10/03 08:18:35;;;;;;;9.18;8.20;;;18.10;88.10;;;;;;5032263;28;20033;-53
2021/10/03 08:21:00;;;;;;;11.38;8.82;;;18.20;87.40;;;;;;5032885;28;20026;-53
2021/10/03 08:23:26;;;;;;;10.48;8.63;;;18.40;87.00;;;;;;5049457;28;20492;-56
2021/10/03 08:25:51;;;;;;;13.02;7.95;;;18.60;80.90;;;;;;5034914;28;20030;-54
2021/10/03 08:28:17;;;;;;;11.27;8.70;;;18.90;85.20;;;;;;5017012;28;20017;-52
2021/10/03 08:30:42;;;;;;;12.55;8.80;;;19.20;75.70;;;;;;5030961;28;20524;-54
2021/10/03 08:33:08;;;;;;;11.65;8.30;;;19.50;71.20;;;;;;5018190;28;20033;-52
2021/10/03 08:35:34;;;;;;;10.60;8.23;;;19.60;74.70;;;;;;5032665;28;20469;-53
2021/10/03 08:38:00;;;;;;;11.63;8.55;;;19.80;73.60;;;;;;5032159;28;20029;-52
2021/10/03 08:40:26;;;;;;;11.10;8.65;;;19.90;71.90;;;;;;5043409;28;20033;-52
2021/10/03 08:42:51;;;;;;;10.80;8.35;;;19.90;70.20;;;;;;5032219;28;20044;-53
2021/10/03 08:45:17;;;;;;;10.70;7.80;;;20.10;70.80;;;;;;5032879;28;20029;-55
2021/10/03 08:47:43;;;;;;;11.43;8.20;;;20.30;67.90;;;;;;5032664;28;20056;-52
2021/10/03 08:50:11;;;;;;;12.05;8.75;;;20.30;63.90;;;;;;5035357;28;20053;-52
2021/10/03 08:52:41;;;;;;;12.40;9.05;;;20.10;64.30;;;;;;5051130;28;20131;-52
2021/10/03 08:55:09;;;;;;;9.10;7.70;;;20.30;65.40;;;;;;5034859;28;20353;-51
2021/10/03 08:57:35;;;;;;;9.48;7.95;;;20.50;64.80;;;;;;5049119;28;20508;-55
2021/10/03 09:00:08;;;;;;;11.55;8.15;;;20.50;64.50;;;;;;5050167;28;20356;-55
2021/10/03 09:03:07;;;;;;;12.93;7.68;;;20.60;66.60;;;;;;5034557;28;20091;-52
2021/10/03 09:05:32;;;;;;;9.15;7.25;;;20.80;62.80;;;;;;5034610;28;20373;-52
2021/10/03 09:08:20;;;;;;;10.85;9.35;;;20.90;62.20;;;;;;5040573;28;20083;-50
2021/10/03 09:11:03;;;;;;;11.63;8.50;;;20.80;62.80;;;;;;5047140;28;20108;-50
2021/10/03 09:13:32;;;;;;;10.50;7.93;;;20.70;61.40;;;;;;5028813;28;20022;-53
2021/10/03 09:16:03;;;;;;;13.23;8.88;;;20.70;62.80;;;;;;5021248;28;20041;-50
2021/10/03 09:18:56;;;;;;;9.02;7.65;;;20.90;64.60;;;;;;5024635;28;20045;-53
2021/10/03 09:21:33;;;;;;;10.15;8.02;;;21.10;60.60;;;;;;5029926;28;20329;-53
2021/10/03 09:24:09;;;;;;;9.73;7.32;;;21.10;61.60;;;;;;5030026;28;20577;-54
2021/10/03 09:26:37;;;;;;;9.10;7.85;;;21.00;61.20;;;;;;5027107;28;20469;-50
2021/10/03 09:29:29;;;;;;;10.25;7.97;;;20.90;62.00;;;;;;5028174;28;20036;-51
2021/10/03 09:32:18;;;;;;;10.02;7.38;;;20.80;59.80;;;;;;5031379;28;20468;-53
2021/10/03 09:34:47;;;;;;;8.15;6.95;;;20.90;64.10;;;;;;5031523;28;20030;-52
2021/10/03 09:37:21;;;;;;;9.43;7.30;;;21.10;63.00;;;;;;5020777;28;20022;-48
2021/10/03 09:39:50;;;;;;;9.05;7.63;;;21.10;63.60;;;;;;5028625;28;20065;-52
2021/10/03 09:42:16;;;;;;;9.38;8.18;;;21.00;62.40;;;;;;5031893;28;20017;-53
2021/10/03 09:45:05;;;;;;;8.45;7.22;;;20.90;62.20;;;;;;5023916;28;20030;-51
2021/10/03 09:47:33;;;;;;;8.00;7.20;;;20.90;59.50;;;;;;5028626;28;20033;-53
2021/10/03 09:49:58;;;;;;;12.60;6.93;;;21.00;61.60;;;;;;5031277;28;20122;-55
2021/10/03 09:52:24;;;;;;;10.93;6.82;;;21.10;62.20;;;;;;5031516;28;20104;-49
2021/10/03 09:54:52;;;;;;;11.38;7.85;;;21.20;61.50;;;;;;5030588;28;20120;-53
2021/10/03 09:57:18;;;;;;;10.75;7.75;;;21.10;57.30;;;;;;5031403;28;20153;-51
2021/10/03 09:59:45;;;;;;;10.85;7.47;;;21.10;58.40;;;;;;5031116;28;20076;-54
2021/10/03 10:02:12;;;;;;;9.63;6.82;;;21.00;60.30;;;;;;5031462;28;20081;-50
2021/10/03 10:04:39;;;;;;;7.57;6.72;;;21.00;60.30;;;;;;5031060;28;20096;-53
2021/10/03 10:07:05;;;;;;;8.38;7.22;;;21.00;60.50;;;;;;5031091;28;20047;-53
2021/10/03 10:09:31;;;;;;;7.38;6.60;;;21.10;59.00;;;;;;5025714;28;20033;-48
2021/10/03 10:12:16;;;;;;;9.20;6.78;;;21.20;59.20;;;;;;5032603;28;20041;-52
2021/10/03 10:14:45;;;;;;;7.82;6.93;;;21.20;56.50;;;;;;5024780;28;20037;-53
2021/10/03 10:17:29;;;;;;;7.82;7.03;;;21.20;58.00;;;;;;5019193;28;20029;-53
2021/10/03 10:19:55;;;;;;;8.60;6.78;;;21.30;57.10;;;;;;5023867;28;20033;-55
2021/10/03 10:22:22;;;;;;;8.18;6.35;;;21.50;57.50;;;;;;5032765;28;20377;-54
2021/10/03 10:24:58;;;;;;;7.75;6.50;;;21.70;57.00;;;;;;5029764;28;20373;-56
2021/10/03 10:27:30;;;;;;;;;;;21.80;55.30;;;;;;5037677;28;20033;-56
2021/10/03 10:29:57;;;;;;;9.05;7.30;;;21.80;51.90;;;;;;5050455;28;20746;-54
2021/10/03 10:32:24;;;;;;;9.95;7.22;;;21.90;52.30;;;;;;5050832;28;20021;-56
2021/10/03 10:35:08;;;;;;;9.77;6.80;;;21.90;52.80;;;;;;5035600;28;20037;-56
2021/10/03 10:37:49;;;;;;;9.95;6.07;;;22.00;53.80;;;;;;5024631;28;20030;-52
2021/10/03 10:40:20;;;;;;;9.73;7.22;;;22.10;53.60;;;;;;5019120;28;20408;-57
2021/10/03 10:42:52;;;;;;;7.18;6.47;;;22.10;52.80;;;;;;5034621;28;20152;-53
2021/10/03 10:46:02;;;;;;;9.57;6.60;;;22.20;55.10;;;;;;5031652;28;20030;-57
2021/10/03 10:48:21;;;;;;;8.18;6.57;;;22.20;52.50;;;;;;5025171;28;20033;-55
2021/10/03 10:50:50;;;;;;;7.78;6.60;;;22.20;55.30;;;;;;5024337;28;20443;-53
2021/10/03 10:53:24;;;;;;;8.68;6.07;;;22.30;54.60;;;;;;5019734;28;20481;-55
2021/10/03 10:56:18;;;;;;;6.82;6.13;;;22.50;54.80;;;;;;5034281;28;20032;-53
2021/10/03 10:58:50;;;;;;;7.70;6.50;;;22.70;53.10;;;;;;5029931;28;20476;-56
2021/10/03 11:01:17;;;;;;;8.63;6.55;;;22.70;50.50;;;;;;5030184;28;20067;-49
2021/10/03 11:03:43;;;;;;;8.27;6.47;;;22.70;50.40;;;;;;5029689;28;20033;-54
2021/10/03 11:06:34;;;;;;;9.27;7.07;;;22.70;49.70;;;;;;5031572;28;20100;-53
2021/10/03 11:09:03;;;;;;;9.32;5.95;;;22.70;50.90;;;;;;5021711;28;20037;-52
2021/10/03 11:11:34;;;;;;;11.15;7.10;;;22.70;49.70;;;;;;5030943;28;20029;-52
2021/10/03 11:14:05;;;;;;;11.75;6.72;;;22.70;47.10;;;;;;5030049;28;20033;-53
2021/10/03 11:16:34;;;;;;;8.65;7.00;;;22.70;49.60;;;;;;5027044;28;20108;-50
2021/10/03 11:19:14;;;;;;;7.18;5.93;;;22.80;49.10;;;;;;5030044;28;20037;-51
2021/10/03 11:21:46;;;;;;;9.82;6.78;;;22.90;46.90;;;;;;5021555;28;20499;-57
2021/10/03 11:24:18;;;;;;;7.97;6.03;;;23.00;47.30;;;;;;5045234;28;20056;-54
2021/10/03 11:26:51;;;;;;;8.07;6.72;;;23.20;47.80;;;;;;5042836;28;20165;-54
2021/10/03 11:29:27;;;;;;;8.32;6.60;;;23.20;46.50;;;;;;5030465;28;20457;-55
2021/10/03 11:31:56;;;;;;;6.78;6.07;;;23.20;47.50;;;;;;5028370;28;20103;-53
2021/10/03 11:34:38;;;;;;;15.02;7.93;;;23.30;48.50;;;;;;5038239;28;20036;-53
2021/10/03 11:37:37;;;;;;;7.43;6.22;;;23.10;47.30;;;;;;5038049;28;20104;-54
2021/10/03 11:40:08;;;;;;;7.88;6.85;;;23.20;48.20;;;;;;4998516;28;20038;-53
2021/10/03 11:42:41;;;;;;;12.57;7.22;;;23.10;48.50;;;;;;5029421;28;20025;-52
2021/10/03 11:45:12;;;;;;;8.55;7.50;;;23.10;48.30;;;;;;5018293;28;20481;-56
2021/10/03 11:47:46;;;;;;;8.45;6.45;;;23.00;48.30;;;;;;5033214;28;20036;-54
2021/10/03 11:50:37;;;;;;;9.82;8.27;;;22.90;49.20;;;;;;5050206;28;20766;-49
2021/10/03 11:53:16;;;;;;;7.85;6.88;;;22.90;48.50;;;;;;5018638;28;20399;-50
2021/10/03 11:55:43;;;;;;;7.07;6.10;;;22.90;49.10;;;;;;5033482;28;20507;-53
2021/10/03 11:58:16;;;;;;;8.60;6.70;;;23.00;49.40;;;;;;5033416;28;20025;-51
2021/10/03 12:01:00;;;;;;;7.22;6.05;;;23.10;48.80;;;;;;5033527;28;20041;-52
2021/10/03 12:03:32;;;;;;;9.65;6.93;;;23.20;49.20;;;;;;5020362;28;20034;-56
2021/10/03 12:05:59;;;;;;;8.57;6.20;;;23.20;47.90;;;;;;5033333;28;20025;-51
2021/10/03 12:08:26;;;;;;;8.75;6.53;;;23.20;46.60;;;;;;5031406;28;20041;-49
2021/10/03 12:11:03;;;;;;;8.80;6.63;;;23.30;47.70;;;;;;5036233;28;20057;-49
2021/10/03 12:13:36;;;;;;;6.65;5.95;;;23.40;46.50;;;;;;5033626;28;20071;-54
2021/10/03 12:16:12;;;;;;;9.40;7.03;;;23.40;47.20;;;;;;5029220;28;20033;-53
2021/10/03 12:18:43;;;;;;;8.57;6.22;;;23.40;47.20;;;;;;5033518;28;20025;-52
2021/10/03 12:21:11;;;;;;;9.27;6.63;;;23.40;45.60;;;;;;5025297;28;20474;-52
2021/10/03 12:23:52;;;;;;;8.20;6.53;;;23.40;44.50;;;;;;5032190;28;20022;-52
2021/10/03 12:26:30;;;;;;;8.85;6.15;;;23.50;45.40;;;;;;5020667;28;20026;-51
2021/10/03 12:29:06;;;;;;;8.95;5.97;;;23.50;45.70;;;;;;5033181;28;20076;-52
2021/10/03 12:31:52;;;;;;;8.27;6.05;;;23.60;45.50;;;;;;5033273;28;20024;-52
2021/10/03 12:34:23;;;;;;;7.78;6.28;;;23.60;45.10;;;;;;5032836;28;20033;-53
2021/10/03 12:36:49;;;;;;;8.15;6.78;;;23.60;45.50;;;;;;5032837;28;20025;-56
2021/10/03 12:39:25;;;;;;;6.97;6.28;;;23.50;45.30;;;;;;5031960;28;20627;-52
2021/10/03 12:41:55;;;;;;;9.77;7.05;;;23.50;44.00;;;;;;5032853;28;20025;-54
2021/10/03 12:44:28;;;;;;;9.10;6.00;;;23.50;42.80;;;;;;5032849;28;20144;-50